Time,TemperatureF,DewpointF,PressureIn,WindDirection,WindDirectionDegrees,WindSpeedMPH,WindSpeedGustMPH,Humidity,HourlyPrecipIn,Conditions,Clouds,dailyrainin,SolarRadiationWatts/m^2,SoftwareType,DateUTC
2013-06-10 00:01:00,67.3,64.2,29.94,SSE,149,4.0,12.0,90,0.00,,,0.00,0.0,meteohub,2013-06-10 04:01:00,
2013-06-10 00:02:00,67.3,64.2,29.94,SSE,163,6.0,12.0,90,0.00,,,0.00,0.0,meteohub,2013-06-10 04:02:00,
2013-06-10 00:03:00,67.3,64.2,29.94,SSW,196,3.0,12.0,90,0.00,,,0.00,0.0,meteohub,2013-06-10 04:03:00,
2013-06-10 00:04:00,67.3,64.2,29.94,SSE,150,3.0,12.0,90,0.00,,,0.00,0.0,meteohub,2013-06-10 04:04:00,
2013-06-10 00:09:00,67.1,64.0,29.94,South,175,3.0,12.0,90,0.00,,,0.00,0.0,meteohub,2013-06-10 04:09:00,
2013-06-10 00:14:00,67.1,64.0,29.94,ESE,114,6.0,12.0,90,0.00,,,0.00,0.0,meteohub,2013-06-10 04:14:00,
2013-06-10 00:19:00,67.1,64.0,29.93,SSE,153,2.0,10.0,90,0.00,,,0.00,0.0,meteohub,2013-06-10 04:19:00,
2013-06-10 00:25:00,66.9,63.9,29.93,SE,131,2.0,10.0,90,0.00,,,0.00,0.0,meteohub,2013-06-10 04:25:00,
2013-06-10 00:30:00,66.9,64.2,29.93,SSE,148,3.0,10.0,91,0.00,,,0.00,0.0,meteohub,2013-06-10 04:30:00,
2013-06-10 00:35:00,66.9,64.2,29.92,SSE,165,2.0,10.0,91,0.00,,,0.00,0.0,meteohub,2013-06-10 04:35:00,
2013-06-10 00:40:00,66.9,64.2,29.92,SSE,163,1.0,10.0,91,0.00,,,0.00,0.0,meteohub,2013-06-10 04:40:00,
2013-06-10 00:45:00,66.9,64.2,29.92,SSE,151,2.0,10.0,91,0.00,,,0.00,0.0,meteohub,2013-06-10 04:45:00,
2013-06-10 00:50:00,66.9,64.2,29.92,South,174,3.0,10.0,91,0.00,,,0.00,0.0,meteohub,2013-06-10 04:50:00,
2013-06-10 00:55:00,66.9,63.9,29.92,SSW,205,2.0,8.0,90,0.00,,,0.00,0.0,meteohub,2013-06-10 04:55:00,
2013-06-10 01:01:00,67.1,64.0,29.91,South,173,3.0,11.0,90,0.00,,,0.00,0.0,meteohub,2013-06-10 05:01:00,
2013-06-10 01:06:00,67.3,64.2,29.91,SE,132,4.0,11.0,90,0.00,,,0.00,0.0,meteohub,2013-06-10 05:06:00,
2013-06-10 01:11:00,67.3,64.2,29.91,ESE,122,0.0,10.0,90,0.00,,,0.00,0.0,meteohub,2013-06-10 05:11:00,
2013-06-10 01:16:00,67.3,64.2,29.91,SE,144,3.0,10.0,90,0.00,,,0.00,0.0,meteohub,2013-06-10 05:16:00,
2013-06-10 01:21:00,67.5,64.4,29.90,SSW,205,3.0,11.0,90,0.00,,,0.00,0.0,meteohub,2013-06-10 05:21:00,
2013-06-10 01:27:00,67.5,64.4,29.90,SSE,167,2.0,11.0,90,0.00,,,0.00,0.0,meteohub,2013-06-10 05:27:00,
2013-06-10 01:32:00,67.5,64.4,29.90,SSW,205,2.0,9.0,90,0.00,,,0.00,0.0,meteohub,2013-06-10 05:32:00,
2013-06-10 01:37:00,67.5,64.4,29.90,South,179,5.0,8.0,90,0.00,,,0.00,0.0,meteohub,2013-06-10 05:37:00,
2013-06-10 01:42:00,67.5,64.4,29.90,SSE,150,3.0,8.0,90,0.00,,,0.00,0.0,meteohub,2013-06-10 05:42:00,
2013-06-10 01:47:00,67.5,64.4,29.90,ESE,108,3.0,10.0,90,0.00,,,0.00,0.0,meteohub,2013-06-10 05:47:00,
2013-06-10 01:52:00,67.5,64.4,29.89,SSE,147,3.0,10.0,90,0.00,,,0.00,0.0,meteohub,2013-06-10 05:52:00,
2013-06-10 01:58:00,67.5,64.4,29.89,SSE,151,1.0,7.0,90,0.00,,,0.00,0.0,meteohub,2013-06-10 05:58:00,
2013-06-10 02:03:00,67.6,64.6,29.88,SSE,152,1.0,7.0,90,0.00,,,0.00,0.0,meteohub,2013-06-10 06:03:00,
2013-06-10 02:08:00,67.6,64.9,29.88,SE,129,5.0,7.0,91,0.00,,,0.00,0.0,meteohub,2013-06-10 06:08:00,
2013-06-10 02:13:00,67.5,64.8,29.88,SE,134,5.0,7.0,91,0.05,,,0.05,0.0,meteohub,2013-06-10 06:13:00,
2013-06-10 02:18:00,67.5,65.1,29.88,South,175,2.0,10.0,92,0.05,,,0.05,0.0,meteohub,2013-06-10 06:18:00,
2013-06-10 02:23:00,67.3,64.9,29.88,SSE,155,1.0,10.0,92,0.05,,,0.05,0.0,meteohub,2013-06-10 06:23:00,
2013-06-10 02:28:00,67.3,64.9,29.87,SE,141,5.0,10.0,92,0.05,,,0.05,0.0,meteohub,2013-06-10 06:28:00,
2013-06-10 02:34:00,67.3,64.9,29.87,SE,137,3.0,7.0,92,0.05,,,0.05,0.0,meteohub,2013-06-10 06:34:00,
2013-06-10 02:39:00,67.3,65.1,29.86,South,174,3.0,10.0,93,0.05,,,0.05,0.0,meteohub,2013-06-10 06:39:00,
2013-06-10 02:44:00,67.3,65.1,29.86,SE,130,4.0,10.0,93,0.05,,,0.05,0.0,meteohub,2013-06-10 06:44:00,
2013-06-10 02:49:00,67.3,65.1,29.86,South,169,4.0,10.0,93,0.05,,,0.05,0.0,meteohub,2013-06-10 06:49:00,
2013-06-10 02:54:00,67.3,65.1,29.86,SE,140,3.0,10.0,93,0.05,,,0.05,0.0,meteohub,2013-06-10 06:54:00,
2013-06-10 02:59:00,67.3,65.1,29.86,SE,142,2.0,10.0,93,0.05,,,0.05,0.0,meteohub,2013-06-10 06:59:00,
2013-06-10 03:05:00,67.3,65.1,29.85,SE,130,3.0,10.0,93,0.05,,,0.05,0.0,meteohub,2013-06-10 07:05:00,
2013-06-10 03:10:00,67.3,65.1,29.85,SSE,158,4.0,10.0,93,0.00,,,0.05,0.0,meteohub,2013-06-10 07:10:00,
2013-06-10 03:15:00,67.3,65.1,29.85,WSW,253,2.0,8.0,93,0.00,,,0.05,0.0,meteohub,2013-06-10 07:15:00,
2013-06-10 03:20:00,67.3,65.1,29.85,SE,143,2.0,8.0,93,0.00,,,0.05,0.0,meteohub,2013-06-10 07:20:00,
2013-06-10 03:26:00,67.3,65.1,29.84,SSE,149,6.0,8.0,93,0.00,,,0.05,0.0,meteohub,2013-06-10 07:26:00,
2013-06-10 03:31:00,67.3,65.1,29.84,South,171,4.0,13.0,93,0.00,,,0.05,0.0,meteohub,2013-06-10 07:31:00,
2013-06-10 03:36:00,67.3,65.1,29.84,SSE,153,2.0,13.0,93,0.00,,,0.05,0.0,meteohub,2013-06-10 07:36:00,
2013-06-10 03:41:00,67.5,65.3,29.84,East,96,4.0,8.0,93,0.01,,,0.06,0.0,meteohub,2013-06-10 07:41:00,
2013-06-10 03:47:00,67.5,65.3,29.84,South,180,2.0,8.0,93,0.01,,,0.06,0.0,meteohub,2013-06-10 07:47:00,
2013-06-10 03:52:00,67.6,65.5,29.84,South,173,4.0,8.0,93,0.03,,,0.08,0.0,meteohub,2013-06-10 07:52:00,
2013-06-10 03:57:00,67.6,65.5,29.84,WNW,288,5.0,8.0,93,0.07,,,0.12,0.0,meteohub,2013-06-10 07:57:00,
2013-06-10 04:02:00,67.6,65.5,29.85,WNW,286,2.0,10.0,93,0.07,,,0.12,0.0,meteohub,2013-06-10 08:02:00,
2013-06-10 04:07:00,67.5,65.3,29.85,WNW,293,6.0,10.0,93,0.07,,,0.12,0.0,meteohub,2013-06-10 08:07:00,
2013-06-10 04:13:00,67.3,65.1,29.85,West,267,4.0,10.0,93,0.09,,,0.14,0.0,meteohub,2013-06-10 08:13:00,
2013-06-10 04:18:00,67.1,64.9,29.84,WNW,288,2.0,9.0,93,0.11,,,0.16,0.0,meteohub,2013-06-10 08:18:00,
2013-06-10 04:23:00,66.9,64.6,29.85,West,268,2.0,7.0,92,0.13,,,0.18,0.0,meteohub,2013-06-10 08:23:00,
2013-06-10 04:28:00,66.6,64.2,29.85,South,186,1.0,7.0,92,0.15,,,0.20,0.0,meteohub,2013-06-10 08:28:00,
2013-06-10 04:33:00,66.4,64.2,29.85,NW,313,1.0,7.0,93,0.16,,,0.21,0.0,meteohub,2013-06-10 08:33:00,
2013-06-10 04:38:00,66.2,63.9,29.85,NW,319,0.0,5.0,92,0.15,,,0.21,0.0,meteohub,2013-06-10 08:38:00,
2013-06-10 04:43:00,66.0,63.7,29.85,WSW,248,3.0,5.0,92,0.18,,,0.24,0.0,meteohub,2013-06-10 08:43:00,
2013-06-10 04:49:00,65.8,63.7,29.86,SSE,162,3.0,5.0,93,0.28,,,0.29,0.0,meteohub,2013-06-10 08:49:00,
2013-06-10 04:54:00,65.7,63.5,29.87,WSW,252,2.0,5.0,93,0.28,,,0.38,0.0,meteohub,2013-06-10 08:54:00,
2013-06-10 04:59:00,65.5,63.3,29.85,WSW,256,3.0,10.0,93,0.36,,,0.48,0.0,meteohub,2013-06-10 08:59:00,
2013-06-10 05:04:00,65.1,63.0,29.85,South,169,1.0,10.0,93,0.43,,,0.53,0.0,meteohub,2013-06-10 09:04:00,
2013-06-10 05:09:00,65.1,63.0,29.84,SSW,205,0.0,10.0,93,0.45,,,0.57,0.0,meteohub,2013-06-10 09:09:00,
2013-06-10 05:14:00,64.9,63.1,29.84,SSE,156,2.0,4.0,94,0.43,,,0.58,0.0,meteohub,2013-06-10 09:14:00,
2013-06-10 05:20:00,64.9,63.1,29.84,SSE,154,0.0,4.0,94,0.43,,,0.59,0.0,meteohub,2013-06-10 09:20:00,
2013-06-10 05:25:00,64.9,63.1,29.84,SE,138,2.0,3.0,94,0.41,,,0.62,0.0,meteohub,2013-06-10 09:25:00,
2013-06-10 05:30:00,64.9,63.1,29.84,SSW,192,2.0,3.0,94,0.42,,,0.64,0.0,meteohub,2013-06-10 09:30:00,
2013-06-10 05:35:00,64.9,63.1,29.84,SSE,156,2.0,4.0,94,0.45,,,0.66,0.0,meteohub,2013-06-10 09:35:00,
2013-06-10 05:40:00,64.8,63.0,29.84,SE,132,2.0,4.0,94,0.41,,,0.67,0.0,meteohub,2013-06-10 09:40:00,
2013-06-10 05:45:00,64.8,63.0,29.84,SE,142,1.0,4.0,94,0.33,,,0.69,0.0,meteohub,2013-06-10 09:45:00,
2013-06-10 05:50:00,64.8,63.3,29.85,SSE,152,2.0,3.0,95,0.32,,,0.72,0.0,meteohub,2013-06-10 09:50:00,
2013-06-10 05:56:00,64.8,63.3,29.84,SSE,150,2.0,3.0,95,0.24,,,0.74,0.0,meteohub,2013-06-10 09:56:00,
2013-06-10 06:01:00,64.8,63.3,29.84,SE,125,1.0,3.0,95,0.23,,,0.78,0.0,meteohub,2013-06-10 10:01:00,
2013-06-10 06:06:00,64.8,63.3,29.84,SE,131,0.0,4.0,95,0.22,,,0.80,0.0,meteohub,2013-06-10 10:06:00,
2013-06-10 06:11:00,64.8,63.3,29.85,SSE,165,1.0,4.0,95,0.23,,,0.82,0.0,meteohub,2013-06-10 10:11:00,
2013-06-10 06:17:00,64.8,63.3,29.85,SSE,148,4.0,4.0,95,0.25,,,0.85,0.0,meteohub,2013-06-10 10:17:00,
2013-06-10 06:22:00,64.8,63.3,29.86,SE,142,4.0,8.0,95,0.27,,,0.88,0.0,meteohub,2013-06-10 10:22:00,
2013-06-10 06:27:00,64.8,63.3,29.85,SSE,157,4.0,8.0,95,0.27,,,0.90,0.0,meteohub,2013-06-10 10:27:00,
2013-06-10 06:32:00,64.6,63.1,29.85,SSE,157,2.0,8.0,95,0.29,,,0.93,0.0,meteohub,2013-06-10 10:32:00,
2013-06-10 06:37:00,64.6,63.1,29.85,SSE,153,4.0,6.0,95,0.29,,,0.94,0.0,meteohub,2013-06-10 10:37:00,
2013-06-10 06:42:00,64.6,63.1,29.85,SSE,168,4.0,6.0,95,0.28,,,0.96,0.0,meteohub,2013-06-10 10:42:00,
2013-06-10 06:47:00,64.4,63.0,29.85,SSE,158,3.0,5.0,95,0.27,,,0.97,0.0,meteohub,2013-06-10 10:47:00,
2013-06-10 06:52:00,64.4,63.0,29.85,South,172,0.0,5.0,95,0.26,,,0.98,0.0,meteohub,2013-06-10 10:52:00,
2013-06-10 06:58:00,64.2,62.8,29.86,SSE,159,4.0,5.0,95,0.27,,,1.02,0.0,meteohub,2013-06-10 10:58:00,
2013-06-10 07:03:00,64.4,63.0,29.86,SSE,147,2.0,5.0,95,0.26,,,1.05,7.0,meteohub,2013-06-10 11:03:00,
2013-06-10 07:08:00,64.4,63.0,29.86,South,176,3.0,5.0,95,0.25,,,1.06,16.0,meteohub,2013-06-10 11:08:00,
2013-06-10 07:13:00,64.4,63.0,29.86,South,184,3.0,6.0,95,0.24,,,1.06,18.0,meteohub,2013-06-10 11:13:00,
2013-06-10 07:18:00,64.4,63.0,29.85,SSE,153,0.0,6.0,95,0.20,,,1.06,21.0,meteohub,2013-06-10 11:18:00,
2013-06-10 07:24:00,64.4,63.0,29.84,SE,134,0.0,6.0,95,0.18,,,1.06,25.0,meteohub,2013-06-10 11:24:00,
2013-06-10 07:29:00,64.6,63.1,29.85,SSE,159,2.0,5.0,95,0.15,,,1.06,32.0,meteohub,2013-06-10 11:29:00,
2013-06-10 07:34:00,64.6,63.1,29.86,South,177,2.0,3.0,95,0.13,,,1.06,16.0,meteohub,2013-06-10 11:34:00,
2013-06-10 07:39:00,64.6,63.1,29.86,SE,132,3.0,4.0,95,0.11,,,1.06,69.0,meteohub,2013-06-10 11:39:00,
2013-06-10 07:44:00,64.8,63.3,29.86,SSE,161,3.0,6.0,95,0.11,,,1.07,32.0,meteohub,2013-06-10 11:44:00,
2013-06-10 07:49:00,64.8,63.3,29.86,SSE,163,3.0,6.0,95,0.09,,,1.07,32.0,meteohub,2013-06-10 11:49:00,
2013-06-10 07:54:00,64.9,63.5,29.86,South,178,4.0,6.0,95,0.07,,,1.07,49.0,meteohub,2013-06-10 11:54:00,
2013-06-10 07:59:00,64.9,63.5,29.86,South,189,2.0,7.0,95,0.05,,,1.07,28.0,meteohub,2013-06-10 11:59:00,
2013-06-10 08:05:00,65.1,63.7,29.85,SSE,159,3.0,7.0,95,0.01,,,1.07,14.0,meteohub,2013-06-10 12:05:00,
2013-06-10 08:10:00,65.1,63.7,29.84,SSE,167,3.0,6.0,95,0.01,,,1.07,19.0,meteohub,2013-06-10 12:10:00,
2013-06-10 08:15:00,65.1,63.7,29.85,West,278,2.0,6.0,95,0.03,,,1.09,12.0,meteohub,2013-06-10 12:15:00,
2013-06-10 08:21:00,65.1,63.7,29.85,SSW,205,1.0,6.0,95,0.04,,,1.10,35.0,meteohub,2013-06-10 12:21:00,
2013-06-10 08:26:00,65.3,63.9,29.85,South,171,2.0,5.0,95,0.04,,,1.10,100.0,meteohub,2013-06-10 12:26:00,
2013-06-10 08:31:00,65.5,64.0,29.85,SSW,210,1.0,5.0,95,0.04,,,1.10,81.0,meteohub,2013-06-10 12:31:00,
2013-06-10 08:36:00,65.7,64.2,29.86,South,175,3.0,6.0,95,0.04,,,1.10,84.0,meteohub,2013-06-10 12:36:00,
2013-06-10 08:41:00,65.7,64.2,29.87,South,187,6.0,6.0,95,0.03,,,1.10,35.0,meteohub,2013-06-10 12:41:00,
2013-06-10 08:46:00,65.7,64.2,29.87,South,175,4.0,8.0,95,0.03,,,1.10,32.0,meteohub,2013-06-10 12:46:00,
2013-06-10 08:52:00,65.7,64.2,29.87,South,188,4.0,9.0,95,0.03,,,1.10,42.0,meteohub,2013-06-10 12:52:00,
2013-06-10 08:57:00,65.8,64.4,29.87,SSE,154,2.0,14.0,95,0.03,,,1.10,74.0,meteohub,2013-06-10 12:57:00,
2013-06-10 09:02:00,65.8,64.4,29.87,SSE,152,4.0,14.0,95,0.03,,,1.10,28.0,meteohub,2013-06-10 13:02:00,
2013-06-10 09:07:00,65.8,64.4,29.87,SSE,167,3.0,14.0,95,0.03,,,1.10,77.0,meteohub,2013-06-10 13:07:00,
2013-06-10 09:12:00,66.0,64.6,29.88,SSE,163,3.0,10.0,95,0.03,,,1.10,63.0,meteohub,2013-06-10 13:12:00,
2013-06-10 09:17:00,66.0,64.6,29.88,WSW,247,4.0,10.0,95,0.01,,,1.10,69.0,meteohub,2013-06-10 13:17:00,
2013-06-10 09:22:00,66.0,64.6,29.87,SW,227,4.0,10.0,95,0.00,,,1.10,91.0,meteohub,2013-06-10 13:22:00,
2013-06-10 09:27:00,66.2,64.8,29.86,West,275,4.0,9.0,95,0.00,,,1.10,97.0,meteohub,2013-06-10 13:27:00,
2013-06-10 09:32:00,66.4,64.9,29.87,SW,215,4.0,9.0,95,0.00,,,1.10,169.0,meteohub,2013-06-10 13:32:00,
2013-06-10 09:37:00,66.7,65.3,29.87,West,276,4.0,9.0,95,0.00,,,1.10,315.0,meteohub,2013-06-10 13:37:00,
2013-06-10 09:42:00,67.6,65.8,29.87,WSW,254,5.0,7.0,94,0.00,,,1.10,213.0,meteohub,2013-06-10 13:42:00,
2013-06-10 09:48:00,67.6,65.5,29.87,West,265,4.0,7.0,93,0.00,,,1.10,156.0,meteohub,2013-06-10 13:48:00,
2013-06-10 09:53:00,67.6,65.5,29.88,WSW,245,3.0,10.0,93,0.00,,,1.10,151.0,meteohub,2013-06-10 13:53:00,
2013-06-10 09:58:00,67.8,65.7,29.88,West,279,4.0,10.0,93,0.00,,,1.10,179.0,meteohub,2013-06-10 13:58:00,
2013-06-10 10:03:00,68.0,65.7,29.87,WSW,243,7.0,10.0,92,0.00,,,1.10,183.0,meteohub,2013-06-10 14:03:00,
2013-06-10 10:08:00,68.0,65.7,29.87,SE,137,3.0,9.0,92,0.00,,,1.10,183.0,meteohub,2013-06-10 14:08:00,
2013-06-10 10:13:00,68.2,65.5,29.87,WSW,258,4.0,8.0,91,0.00,,,1.10,223.0,meteohub,2013-06-10 14:13:00,
2013-06-10 10:19:00,68.5,66.4,29.87,WSW,246,7.0,8.0,93,0.00,,,1.10,353.0,meteohub,2013-06-10 14:19:00,
2013-06-10 10:24:00,68.9,66.2,29.87,WSW,252,5.0,9.0,91,0.00,,,1.10,237.0,meteohub,2013-06-10 14:24:00,
2013-06-10 10:29:00,68.9,66.2,29.87,West,265,2.0,9.0,91,0.00,,,1.10,258.0,meteohub,2013-06-10 14:29:00,
2013-06-10 10:34:00,68.9,65.8,29.87,SW,236,5.0,9.0,90,0.00,,,1.10,206.0,meteohub,2013-06-10 14:34:00,
2013-06-10 10:39:00,68.9,65.8,29.87,NW,315,2.0,9.0,90,0.00,,,1.10,304.0,meteohub,2013-06-10 14:39:00,
2013-06-10 10:45:00,69.3,65.8,29.87,West,264,4.0,10.0,89,0.00,,,1.10,308.0,meteohub,2013-06-10 14:45:00,
2013-06-10 10:50:00,69.4,66.0,29.87,WSW,253,5.0,10.0,89,0.00,,,1.10,237.0,meteohub,2013-06-10 14:50:00,
2013-06-10 10:55:00,70.0,66.9,29.87,West,273,4.0,8.0,90,0.00,,,1.10,362.0,meteohub,2013-06-10 14:55:00,
2013-06-10 11:00:00,70.3,66.6,29.87,WSW,245,2.0,10.0,88,0.00,,,1.10,234.0,meteohub,2013-06-10 15:00:00,
2013-06-10 11:05:00,70.3,66.0,29.87,SSE,159,3.0,10.0,86,0.00,,,1.10,195.0,meteohub,2013-06-10 15:05:00,
2013-06-10 11:11:00,69.6,65.7,29.87,WSW,247,6.0,10.0,87,0.00,,,1.10,287.0,meteohub,2013-06-10 15:11:00,
2013-06-10 11:16:00,69.8,66.4,29.87,West,277,7.0,10.0,89,0.00,,,1.10,418.0,meteohub,2013-06-10 15:16:00,
2013-06-10 11:21:00,71.6,67.8,29.86,SE,125,1.0,11.0,88,0.00,,,1.10,631.0,meteohub,2013-06-10 15:21:00,
2013-06-10 11:26:00,72.0,66.6,29.86,West,268,4.0,11.0,83,0.00,,,1.10,471.0,meteohub,2013-06-10 15:26:00,
2013-06-10 11:31:00,72.5,66.7,29.86,WSW,252,4.0,11.0,82,0.00,,,1.10,462.0,meteohub,2013-06-10 15:31:00,
2013-06-10 11:36:00,72.1,67.1,29.86,WSW,257,3.0,10.0,84,0.00,,,1.10,397.0,meteohub,2013-06-10 15:36:00,
2013-06-10 11:41:00,72.5,67.8,29.86,WSW,243,6.0,10.0,85,0.00,,,1.10,294.0,meteohub,2013-06-10 15:41:00,
2013-06-10 11:47:00,73.2,68.2,29.85,SW,234,6.0,10.0,84,0.00,,,1.10,1028.0,meteohub,2013-06-10 15:47:00,
2013-06-10 11:52:00,73.4,68.2,29.85,SSW,198,7.0,9.0,84,0.00,,,1.10,1076.0,meteohub,2013-06-10 15:52:00,
2013-06-10 11:57:00,73.6,67.1,29.85,SW,227,4.0,9.0,80,0.00,,,1.10,352.0,meteohub,2013-06-10 15:57:00,
2013-06-10 12:02:00,73.8,67.3,29.85,WSW,246,4.0,10.0,80,0.00,,,1.10,329.0,meteohub,2013-06-10 16:02:00,
2013-06-10 12:07:00,73.4,67.3,29.85,WSW,253,3.0,10.0,81,0.00,,,1.10,292.0,meteohub,2013-06-10 16:07:00,
2013-06-10 12:12:00,72.7,66.9,29.85,SW,226,3.0,12.0,82,0.00,,,1.10,383.0,meteohub,2013-06-10 16:12:00,
2013-06-10 12:17:00,73.2,68.2,29.85,SW,219,8.0,12.0,84,0.00,,,1.10,383.0,meteohub,2013-06-10 16:17:00,
2013-06-10 12:22:00,74.1,66.7,29.85,South,171,3.0,12.0,78,0.00,,,1.10,348.0,meteohub,2013-06-10 16:22:00,
2013-06-10 12:28:00,73.8,66.0,29.85,SW,236,10.0,11.0,77,0.00,,,1.10,295.0,meteohub,2013-06-10 16:28:00,
2013-06-10 12:33:00,73.6,67.1,29.85,SW,219,4.0,13.0,80,0.00,,,1.10,1071.0,meteohub,2013-06-10 16:33:00,
2013-06-10 12:38:00,74.5,67.5,29.85,West,262,6.0,13.0,79,0.00,,,1.10,1016.0,meteohub,2013-06-10 16:38:00,
2013-06-10 12:43:00,75.4,67.6,29.85,SE,142,4.0,13.0,77,0.00,,,1.10,974.0,meteohub,2013-06-10 16:43:00,
2013-06-10 12:48:00,76.1,68.4,29.85,SSW,198,2.0,13.0,77,0.00,,,1.10,1069.0,meteohub,2013-06-10 16:48:00,
2013-06-10 12:53:00,76.3,67.8,29.84,SW,215,4.0,13.0,75,0.00,,,1.10,227.0,meteohub,2013-06-10 16:53:00,
2013-06-10 12:59:00,74.7,66.6,29.85,WSW,249,5.0,14.0,76,0.00,,,1.10,218.0,meteohub,2013-06-10 16:59:00,
2013-06-10 13:04:00,75.0,66.2,29.85,South,169,6.0,16.0,74,0.00,,,1.10,1018.0,meteohub,2013-06-10 17:04:00,
2013-06-10 13:09:00,76.5,67.1,29.84,West,280,3.0,16.0,73,0.00,,,1.10,1085.0,meteohub,2013-06-10 17:09:00,
2013-06-10 13:14:00,77.2,68.2,29.84,WNW,286,3.0,13.0,74,0.00,,,1.10,1078.0,meteohub,2013-06-10 17:14:00,
2013-06-10 13:20:00,77.2,67.1,29.84,WSW,242,5.0,13.0,71,0.00,,,1.10,1025.0,meteohub,2013-06-10 17:20:00,
2013-06-10 13:25:00,77.4,66.7,29.84,SW,215,4.0,12.0,70,0.00,,,1.10,1192.0,meteohub,2013-06-10 17:25:00,
2013-06-10 13:30:00,76.1,66.4,29.84,WSW,256,3.0,13.0,72,0.00,,,1.10,338.0,meteohub,2013-06-10 17:30:00,
2013-06-10 13:35:00,76.5,68.0,29.84,SSE,155,1.0,13.0,75,0.00,,,1.10,410.0,meteohub,2013-06-10 17:35:00,
2013-06-10 13:40:00,76.5,66.4,29.84,WSW,250,6.0,13.0,71,0.00,,,1.10,1199.0,meteohub,2013-06-10 17:40:00,
2013-06-10 13:45:00,77.0,69.3,29.83,West,268,3.0,16.0,77,0.00,,,1.10,1114.0,meteohub,2013-06-10 17:45:00,
2013-06-10 13:50:00,77.7,67.6,29.84,West,260,6.0,16.0,71,0.00,,,1.10,879.0,meteohub,2013-06-10 17:50:00,
2013-06-10 13:56:00,77.4,66.4,29.84,South,171,4.0,16.0,69,0.00,,,1.10,1072.0,meteohub,2013-06-10 17:56:00,
2013-06-10 14:01:00,77.4,66.7,29.83,WSW,248,10.0,12.0,70,0.00,,,1.10,1215.0,meteohub,2013-06-10 18:01:00,
2013-06-10 14:06:00,76.5,66.0,29.84,WSW,250,3.0,15.0,70,0.00,,,1.10,200.0,meteohub,2013-06-10 18:06:00,
2013-06-10 14:12:00,74.8,65.1,29.85,SW,215,5.0,15.0,72,0.00,,,1.10,292.0,meteohub,2013-06-10 18:12:00,
2013-06-10 14:17:00,74.3,65.1,29.85,WNW,284,3.0,15.0,73,0.00,,,1.10,185.0,meteohub,2013-06-10 18:17:00,
2013-06-10 14:22:00,73.4,65.3,29.85,West,269,1.0,16.0,76,0.00,,,1.10,213.0,meteohub,2013-06-10 18:22:00,
2013-06-10 14:27:00,72.7,65.5,29.85,SW,223,9.0,16.0,78,0.00,,,1.10,250.0,meteohub,2013-06-10 18:27:00,
2013-06-10 14:32:00,71.8,65.3,29.85,SSE,167,8.0,13.0,80,0.01,,,1.11,267.0,meteohub,2013-06-10 18:32:00,
2013-06-10 14:38:00,71.6,65.5,29.85,SW,225,2.0,11.0,81,0.01,,,1.11,253.0,meteohub,2013-06-10 18:38:00,
2013-06-10 14:43:00,71.4,64.9,29.85,SW,219,4.0,11.0,80,0.01,,,1.11,230.0,meteohub,2013-06-10 18:43:00,
2013-06-10 14:48:00,72.7,67.6,29.85,WSW,241,3.0,9.0,84,0.01,,,1.11,1020.0,meteohub,2013-06-10 18:48:00,
2013-06-10 14:53:00,74.3,66.9,29.84,SW,225,3.0,9.0,78,0.01,,,1.11,986.0,meteohub,2013-06-10 18:53:00,
2013-06-10 14:58:00,74.3,68.0,29.84,SW,215,2.0,11.0,81,0.01,,,1.11,396.0,meteohub,2013-06-10 18:58:00,
2013-06-10 15:03:00,74.8,66.7,29.84,SSW,210,7.0,14.0,76,0.01,,,1.11,1062.0,meteohub,2013-06-10 19:03:00,
2013-06-10 15:08:00,75.2,68.5,29.83,South,189,3.0,14.0,80,0.01,,,1.11,937.0,meteohub,2013-06-10 19:08:00,
2013-06-10 15:14:00,75.7,66.9,29.83,WNW,290,3.0,15.0,74,0.01,,,1.11,863.0,meteohub,2013-06-10 19:14:00,
2013-06-10 15:19:00,76.3,67.5,29.83,South,177,10.0,15.0,74,0.01,,,1.11,657.0,meteohub,2013-06-10 19:19:00,
2013-06-10 15:24:00,76.5,67.1,29.83,WSW,258,2.0,15.0,73,0.01,,,1.11,784.0,meteohub,2013-06-10 19:24:00,
2013-06-10 15:29:00,76.5,66.4,29.83,ESE,121,2.0,13.0,71,0.01,,,1.11,770.0,meteohub,2013-06-10 19:29:00,
2013-06-10 15:35:00,76.5,67.6,29.83,SW,232,3.0,10.0,74,0.00,,,1.11,527.0,meteohub,2013-06-10 19:35:00,
2013-06-10 15:40:00,75.6,65.5,29.83,SW,231,13.0,13.0,71,0.00,,,1.11,290.0,meteohub,2013-06-10 19:40:00,
2013-06-10 15:45:00,74.7,65.5,29.83,WNW,285,3.0,13.0,73,0.00,,,1.11,316.0,meteohub,2013-06-10 19:45:00,
2013-06-10 15:50:00,74.5,65.7,29.83,SW,227,2.0,18.0,74,0.00,,,1.11,371.0,meteohub,2013-06-10 19:50:00,
2013-06-10 15:55:00,74.5,65.7,29.83,West,271,4.0,18.0,74,0.00,,,1.11,404.0,meteohub,2013-06-10 19:55:00,
2013-06-10 16:00:00,74.5,65.3,29.82,SW,215,8.0,13.0,73,0.00,,,1.11,371.0,meteohub,2013-06-10 20:00:00,
2013-06-10 16:06:00,74.3,65.8,29.83,SW,215,5.0,11.0,75,0.00,,,1.11,320.0,meteohub,2013-06-10 20:06:00,
2013-06-10 16:11:00,73.9,65.8,29.83,WSW,245,7.0,16.0,76,0.00,,,1.11,264.0,meteohub,2013-06-10 20:11:00,
2013-06-10 16:16:00,73.6,65.1,29.83,WSW,244,8.0,17.0,75,0.00,,,1.11,234.0,meteohub,2013-06-10 20:16:00,
2013-06-10 16:21:00,73.2,66.0,29.83,SW,229,5.0,17.0,78,0.00,,,1.11,366.0,meteohub,2013-06-10 20:21:00,
2013-06-10 16:27:00,73.6,64.8,29.83,SSW,210,2.0,17.0,74,0.00,,,1.11,424.0,meteohub,2013-06-10 20:27:00,
2013-06-10 16:32:00,74.7,65.8,29.83,SSE,153,3.0,16.0,74,0.00,,,1.11,898.0,meteohub,2013-06-10 20:32:00,
2013-06-10 16:37:00,75.6,65.1,29.82,WSW,249,11.0,16.0,70,0.00,,,1.11,849.0,meteohub,2013-06-10 20:37:00,
2013-06-10 16:42:00,75.7,65.7,29.82,WNW,282,1.0,13.0,71,0.00,,,1.11,796.0,meteohub,2013-06-10 20:42:00,
2013-06-10 16:48:00,76.3,65.8,29.82,WSW,250,8.0,13.0,70,0.00,,,1.11,758.0,meteohub,2013-06-10 20:48:00,
2013-06-10 16:53:00,76.5,66.4,29.81,SW,236,3.0,11.0,71,0.00,,,1.11,684.0,meteohub,2013-06-10 20:53:00,
2013-06-10 16:58:00,75.7,65.3,29.82,WSW,238,4.0,13.0,70,0.00,,,1.11,693.0,meteohub,2013-06-10 20:58:00,
2013-06-10 17:03:00,76.5,66.4,29.82,SW,223,9.0,13.0,71,0.00,,,1.11,682.0,meteohub,2013-06-10 21:03:00,
2013-06-10 17:09:00,76.3,65.8,29.81,ESE,115,2.0,13.0,70,0.00,,,1.11,663.0,meteohub,2013-06-10 21:09:00,
2013-06-10 17:14:00,76.6,65.3,29.81,South,170,4.0,13.0,68,0.00,,,1.11,629.0,meteohub,2013-06-10 21:14:00,
2013-06-10 17:19:00,76.3,64.9,29.81,SW,221,0.0,14.0,68,0.00,,,1.11,631.0,meteohub,2013-06-10 21:19:00,
2013-06-10 17:24:00,75.7,65.3,29.81,SSW,200,6.0,14.0,70,0.00,,,1.11,577.0,meteohub,2013-06-10 21:24:00,
2013-06-10 17:29:00,75.2,64.8,29.81,West,268,11.0,14.0,70,0.00,,,1.11,330.0,meteohub,2013-06-10 21:29:00,
2013-06-10 17:35:00,75.9,64.9,29.81,SW,215,4.0,13.0,69,0.00,,,1.11,624.0,meteohub,2013-06-10 21:35:00,
2013-06-10 17:40:00,76.5,66.0,29.81,WSW,247,4.0,13.0,70,0.00,,,1.11,587.0,meteohub,2013-06-10 21:40:00,
2013-06-10 17:45:00,76.5,66.0,29.81,WSW,252,4.0,11.0,70,0.00,,,1.11,622.0,meteohub,2013-06-10 21:45:00,
2013-06-10 17:50:00,76.6,66.2,29.81,WSW,239,4.0,12.0,70,0.00,,,1.11,285.0,meteohub,2013-06-10 21:50:00,
2013-06-10 17:55:00,75.7,63.5,29.81,WSW,248,7.0,14.0,66,0.00,,,1.11,192.0,meteohub,2013-06-10 21:55:00,
2013-06-10 18:00:00,75.2,64.4,29.81,SW,227,7.0,14.0,69,0.00,,,1.11,545.0,meteohub,2013-06-10 22:00:00,
2013-06-10 18:05:00,75.9,63.3,29.82,West,262,2.0,14.0,65,0.00,,,1.11,533.0,meteohub,2013-06-10 22:05:00,
2013-06-10 18:10:00,76.6,64.9,29.81,West,267,4.0,14.0,67,0.00,,,1.11,554.0,meteohub,2013-06-10 22:10:00,
2013-06-10 18:15:00,76.3,64.0,29.82,West,263,6.0,14.0,66,0.00,,,1.11,141.0,meteohub,2013-06-10 22:15:00,
2013-06-10 18:21:00,75.6,63.9,29.82,SW,225,4.0,11.0,67,0.00,,,1.11,197.0,meteohub,2013-06-10 22:21:00,
2013-06-10 18:26:00,74.7,64.2,29.83,SSW,201,10.0,11.0,70,0.00,,,1.11,225.0,meteohub,2013-06-10 22:26:00,
2013-06-10 18:31:00,74.8,65.1,29.82,SSW,205,6.0,11.0,72,0.00,,,1.11,192.0,meteohub,2013-06-10 22:31:00,
2013-06-10 18:36:00,74.3,64.8,29.82,SSW,205,3.0,12.0,72,0.00,,,1.11,155.0,meteohub,2013-06-10 22:36:00,
2013-06-10 18:41:00,73.9,65.1,29.82,WNW,285,7.0,15.0,74,0.00,,,1.11,193.0,meteohub,2013-06-10 22:41:00,
2013-06-10 18:47:00,74.7,65.5,29.82,West,275,8.0,15.0,73,0.00,,,1.11,216.0,meteohub,2013-06-10 22:47:00,
2013-06-10 18:52:00,74.7,64.2,29.82,ENE,70,3.0,15.0,70,0.00,,,1.11,229.0,meteohub,2013-06-10 22:52:00,
2013-06-10 18:57:00,74.3,63.1,29.82,South,183,0.0,13.0,68,0.00,,,1.11,74.0,meteohub,2013-06-10 22:57:00,
2013-06-10 19:02:00,73.8,63.3,29.82,SW,224,4.0,13.0,70,0.00,,,1.11,102.0,meteohub,2013-06-10 23:02:00,
2013-06-10 19:07:00,73.2,63.7,29.82,SSW,210,9.0,10.0,72,0.00,,,1.11,269.0,meteohub,2013-06-10 23:07:00,
2013-06-10 19:12:00,73.6,64.0,29.82,SW,228,6.0,10.0,72,0.00,,,1.11,279.0,meteohub,2013-06-10 23:12:00,
2013-06-10 19:17:00,73.9,63.9,29.82,WSW,257,3.0,11.0,71,0.00,,,1.11,246.0,meteohub,2013-06-10 23:17:00,
2013-06-10 19:22:00,74.3,64.8,29.82,West,267,4.0,11.0,72,0.00,,,1.11,236.0,meteohub,2013-06-10 23:22:00,
2013-06-10 19:28:00,74.1,64.6,29.82,South,170,2.0,10.0,72,0.00,,,1.11,93.0,meteohub,2013-06-10 23:28:00,
2013-06-10 19:33:00,74.1,64.6,29.82,WSW,238,7.0,10.0,72,0.00,,,1.11,225.0,meteohub,2013-06-10 23:33:00,
2013-06-10 19:38:00,73.8,64.2,29.83,SW,234,3.0,10.0,72,0.00,,,1.11,176.0,meteohub,2013-06-10 23:38:00,
2013-06-10 19:43:00,73.6,64.8,29.83,SSW,210,5.0,8.0,74,0.00,,,1.11,179.0,meteohub,2013-06-10 23:43:00,
2013-06-10 19:49:00,73.8,64.6,29.83,SW,230,5.0,8.0,73,0.00,,,1.11,144.0,meteohub,2013-06-10 23:49:00,
2013-06-10 19:54:00,73.4,64.6,29.83,South,175,3.0,7.0,74,0.00,,,1.11,67.0,meteohub,2013-06-10 23:54:00,
2013-06-10 19:59:00,73.0,64.6,29.83,West,265,3.0,7.0,75,0.00,,,1.11,26.0,meteohub,2013-06-10 23:59:00,
2013-06-10 20:04:00,72.3,64.4,29.83,SSW,210,3.0,7.0,76,0.00,,,1.11,21.0,meteohub,2013-06-11 00:04:00,
2013-06-10 20:10:00,72.0,64.4,29.83,SW,234,1.0,7.0,77,0.00,,,0.00,25.0,meteohub,2013-06-11 00:10:00,
2013-06-10 20:15:00,71.8,64.6,29.82,SW,229,1.0,7.0,78,0.00,,,0.00,26.0,meteohub,2013-06-11 00:15:00,
2013-06-10 20:20:00,71.4,64.2,29.83,WSW,248,1.0,5.0,78,0.00,,,0.00,28.0,meteohub,2013-06-11 00:20:00,
2013-06-10 20:25:00,71.2,64.4,29.83,SW,229,1.0,4.0,79,0.00,,,0.00,30.0,meteohub,2013-06-11 00:25:00,
2013-06-10 20:30:00,71.1,64.2,29.83,SSW,205,2.0,4.0,79,0.00,,,0.00,33.0,meteohub,2013-06-11 00:30:00,
2013-06-10 20:36:00,71.1,64.6,29.83,WSW,243,1.0,4.0,80,0.00,,,0.00,37.0,meteohub,2013-06-11 00:36:00,
2013-06-10 20:41:00,70.9,64.4,29.83,WSW,241,1.0,4.0,80,0.00,,,0.00,39.0,meteohub,2013-06-11 00:41:00,
2013-06-10 20:46:00,70.9,64.8,29.83,WSW,241,1.0,4.0,81,0.00,,,0.00,25.0,meteohub,2013-06-11 00:46:00,
2013-06-10 20:52:00,70.5,64.4,29.83,WSW,241,0.0,4.0,81,0.00,,,0.00,12.0,meteohub,2013-06-11 00:52:00,
2013-06-10 20:57:00,70.3,64.6,29.84,WSW,241,3.0,3.0,82,0.00,,,0.00,7.0,meteohub,2013-06-11 00:57:00,
2013-06-10 21:02:00,70.2,64.4,29.84,West,260,0.0,3.0,82,0.00,,,0.00,5.0,meteohub,2013-06-11 01:02:00,
2013-06-10 21:07:00,70.0,64.2,29.84,West,260,1.0,3.0,82,0.00,,,0.00,0.0,meteohub,2013-06-11 01:07:00,
2013-06-10 21:12:00,69.6,64.2,29.85,WSW,253,3.0,3.0,83,0.00,,,0.00,0.0,meteohub,2013-06-11 01:12:00,
2013-06-10 21:17:00,69.4,64.4,29.85,West,272,0.0,4.0,84,0.00,,,0.00,0.0,meteohub,2013-06-11 01:17:00,
2013-06-10 21:22:00,69.1,64.0,29.85,West,272,1.0,4.0,84,0.00,,,0.00,0.0,meteohub,2013-06-11 01:22:00,
2013-06-10 21:27:00,68.9,64.2,29.85,West,272,2.0,4.0,85,0.00,,,0.00,0.0,meteohub,2013-06-11 01:27:00,
2013-06-10 21:32:00,68.5,63.9,29.86,West,272,1.0,3.0,85,0.00,,,0.00,0.0,meteohub,2013-06-11 01:32:00,
2013-06-10 21:37:00,68.4,64.0,29.86,West,272,0.0,3.0,86,0.00,,,0.00,0.0,meteohub,2013-06-11 01:37:00,
2013-06-10 21:42:00,68.2,63.9,29.86,West,261,2.0,2.0,86,0.00,,,0.00,0.0,meteohub,2013-06-11 01:42:00,
2013-06-10 21:47:00,68.0,63.7,29.86,West,269,0.0,3.0,86,0.00,,,0.00,0.0,meteohub,2013-06-11 01:47:00,
2013-06-10 21:53:00,67.6,63.3,29.87,West,269,0.0,3.0,86,0.00,,,0.00,0.0,meteohub,2013-06-11 01:53:00,
2013-06-10 21:58:00,67.3,63.0,29.87,West,269,0.0,2.0,86,0.00,,,0.00,0.0,meteohub,2013-06-11 01:58:00,
2013-06-10 22:03:00,66.9,63.0,29.87,West,269,0.0,1.0,87,0.00,,,0.00,0.0,meteohub,2013-06-11 02:03:00,
2013-06-10 22:08:00,66.7,62.8,29.87,West,269,0.0,1.0,87,0.00,,,0.00,0.0,meteohub,2013-06-11 02:08:00,
2013-06-10 22:13:00,66.4,62.8,29.87,West,269,0.0,1.0,88,0.00,,,0.00,0.0,meteohub,2013-06-11 02:13:00,
2013-06-10 22:18:00,66.0,62.4,29.88,West,269,0.0,1.0,88,0.00,,,0.00,0.0,meteohub,2013-06-11 02:18:00,
2013-06-10 22:24:00,65.7,62.2,29.88,West,269,0.0,1.0,89,0.00,,,0.00,0.0,meteohub,2013-06-11 02:24:00,
2013-06-10 22:29:00,65.5,62.2,29.88,West,269,0.0,0.0,89,0.00,,,0.00,0.0,meteohub,2013-06-11 02:29:00,
2013-06-10 22:34:00,65.1,62.1,29.88,West,269,0.0,0.0,90,0.00,,,0.00,0.0,meteohub,2013-06-11 02:34:00,
2013-06-10 22:39:00,64.9,61.9,29.89,West,269,0.0,0.0,90,0.00,,,0.00,0.0,meteohub,2013-06-11 02:39:00,
2013-06-10 22:45:00,64.8,61.7,29.89,West,269,1.0,1.0,90,0.00,,,0.00,0.0,meteohub,2013-06-11 02:45:00,
2013-06-10 22:50:00,64.6,61.5,29.89,West,269,0.0,2.0,90,0.00,,,0.00,0.0,meteohub,2013-06-11 02:50:00,
2013-06-10 22:55:00,64.4,61.7,29.89,West,269,1.0,2.0,91,0.00,,,0.00,0.0,meteohub,2013-06-11 02:55:00,
2013-06-10 23:00:00,64.2,61.5,29.89,West,269,0.0,2.0,91,0.00,,,0.00,0.0,meteohub,2013-06-11 03:00:00,
2013-06-10 23:06:00,64.0,61.3,29.90,West,269,0.0,2.0,91,0.00,,,0.00,0.0,meteohub,2013-06-11 03:06:00,
2013-06-10 23:11:00,64.0,61.3,29.90,West,269,0.0,2.0,91,0.00,,,0.00,0.0,meteohub,2013-06-11 03:11:00,
2013-06-10 23:16:00,63.9,61.2,29.90,West,269,0.0,1.0,91,0.00,,,0.00,0.0,meteohub,2013-06-11 03:16:00,
2013-06-10 23:21:00,63.9,61.5,29.90,West,269,0.0,1.0,92,0.00,,,0.00,0.0,meteohub,2013-06-11 03:21:00,
2013-06-10 23:26:00,63.7,61.3,29.90,West,269,0.0,0.0,92,0.00,,,0.00,0.0,meteohub,2013-06-11 03:26:00,
2013-06-10 23:32:00,63.7,61.7,29.90,West,269,0.0,1.0,93,0.00,,,0.00,0.0,meteohub,2013-06-11 03:32:00,
2013-06-10 23:37:00,63.9,61.9,29.90,SW,229,0.0,1.0,93,0.00,,,0.00,0.0,meteohub,2013-06-11 03:37:00,
2013-06-10 23:42:00,63.9,61.9,29.91,SW,229,1.0,2.0,93,0.00,,,0.00,0.0,meteohub,2013-06-11 03:42:00,
2013-06-10 23:47:00,63.9,61.9,29.91,WSW,244,0.0,4.0,93,0.00,,,0.00,0.0,meteohub,2013-06-11 03:47:00,
2013-06-10 23:52:00,63.9,61.9,29.91,WSW,244,1.0,4.0,93,0.00,,,0.00,0.0,meteohub,2013-06-11 03:52:00,
2013-06-10 23:58:00,64.2,62.4,29.91,WSW,248,0.0,4.0,94,0.00,,,0.00,0.0,meteohub,2013-06-11 03:58:00,